createdAt,value
2019-04-11T05:45:03.907Z,1.90
2019-04-11T05:47:55.530Z,1.90
2019-04-11T05:50:30.462Z,1.90
2019-04-11T05:53:03.644Z,2.00
2019-04-11T05:55:36.364Z,2.00
2019-04-11T05:58:10.688Z,2.10
2019-04-11T06:00:57.842Z,2.30
2019-04-11T06:03:28.272Z,2.40
2019-04-11T06:06:12.739Z,2.50
2019-04-11T06:08:44.190Z,2.60
2019-04-11T06:11:24.065Z,2.70
2019-04-11T06:14:21.433Z,2.70
2019-04-11T06:16:55.779Z,2.90
2019-04-11T06:19:53.564Z,2.90
2019-04-11T06:22:23.533Z,2.90
2019-04-11T06:25:25.652Z,2.90
2019-04-11T06:28:04.020Z,2.90
2019-04-11T06:30:50.629Z,2.90
2019-04-11T06:33:27.118Z,2.90
2019-04-11T06:36:21.404Z,3.00
2019-04-11T06:38:56.724Z,3.10
2019-04-11T06:41:43.016Z,3.20
2019-04-11T06:44:28.010Z,3.30
2019-04-11T06:47:22.993Z,3.40
2019-04-11T06:49:59.195Z,3.50
2019-04-11T06:52:29.050Z,3.70
2019-04-11T06:55:26.790Z,3.70
2019-04-11T07:01:55.468Z,3.70
2019-04-11T07:04:30.520Z,3.90
2019-04-11T07:07:02.291Z,4.00
2019-04-11T20:23:02.720Z,3.90
2019-04-11T20:37:56.759Z,3.80
2019-04-11T20:45:24.625Z,3.80
2019-04-11T22:07:22.367Z,3.40
2019-04-11T22:09:51.769Z,3.50
2019-04-11T22:12:21.175Z,3.50
2019-04-11T22:14:50.537Z,3.50
2019-04-11T22:17:19.937Z,3.50
2019-04-11T22:19:49.560Z,3.40
2019-04-11T22:22:18.929Z,3.40
2019-04-11T22:24:48.324Z,3.40
2019-04-11T22:27:29.258Z,3.40
2019-04-11T22:29:59.155Z,3.50
2019-04-11T22:32:28.669Z,3.50
2019-04-11T22:34:59.139Z,3.50
2019-04-11T22:37:30.085Z,3.50
2019-04-11T22:40:02.095Z,3.50
2019-04-11T22:42:31.071Z,3.40
2019-04-11T22:45:00.647Z,3.40
2019-04-11T22:47:29.984Z,3.40
2019-04-11T22:49:59.351Z,3.30
2019-04-11T22:52:28.738Z,3.30
2019-04-11T22:54:58.086Z,3.30
2019-04-11T22:57:27.592Z,3.30
2019-04-11T22:59:56.958Z,3.30
2019-04-11T23:02:33.685Z,3.30
2019-04-11T23:05:03.042Z,3.30
2019-04-11T23:07:32.384Z,3.30
2019-04-11T23:10:01.775Z,3.20
2019-04-11T23:12:31.125Z,3.20
2019-04-11T23:15:00.481Z,3.10
2019-04-11T23:17:29.829Z,3.10
2019-04-11T23:19:59.213Z,3.10
2019-04-11T23:22:28.864Z,3.10
2019-04-11T23:24:58.235Z,3.10
2019-04-11T23:27:27.589Z,3.10
2019-04-11T23:29:56.943Z,3.10
2019-04-11T23:32:26.480Z,3.10
2019-04-11T23:34:55.867Z,3.10
2019-04-11T23:37:25.221Z,3.10
2019-04-11T23:40:06.935Z,3.10
2019-04-11T23:42:36.771Z,3.10
2019-04-11T23:45:06.124Z,3.10
2019-04-11T23:47:35.507Z,3.10
2019-04-11T23:50:04.885Z,3.20
2019-04-11T23:52:34.278Z,3.10
2019-04-11T23:55:03.657Z,3.10
2019-04-11T23:57:33.023Z,3.10
